Time;durP1;ratioP1;P1;durP2;ratioP2;P2;SDS_P1;SDS_P2;PMS_P1;PMS_P2;Temp;Humidity;BMP_temperature;BMP_pressure;BME280_temperature;BME280_humidity;BME280_pressure;Samples;Min_cycle;Max_cycle;Signal;HPM_P1;HPM_P2
2022/08/12 00:43:29;;;;;;;1.48;0.95;;;;;;;22.98;58.11;101507.81;5026073;28;20041;-66
2022/08/12 00:48:40;;;;;;;1.75;1.10;;;;;;;22.84;58.60;101513.53;5021097;28;20107;-66
2022/08/12 00:51:08;;;;;;;1.35;0.85;;;;;;;22.85;58.62;101509.59;5029747;28;20155;-66
2022/08/12 00:53:34;;;;;;;1.50;0.82;;;;;;;22.69;58.74;101509.47;5026036;28;20481;-66
2022/08/12 00:56:02;;;;;;;1.75;0.60;;;;;;;22.65;59.82;101514.22;5029165;28;20034;-66
2022/08/12 00:58:30;;;;;;;1.25;0.80;;;;;;;22.53;60.32;101512.03;5028901;28;20045;-66
2022/08/12 01:01:00;;;;;;;1.02;0.80;;;;;;;22.60;60.22;101506.47;5023672;28;20069;-66
2022/08/12 01:11:27;;;;;;;1.52;0.90;;;;;;;22.58;60.01;101516.31;5029594;28;20039;-66
2022/08/12 01:11:50;;;;;;;1.85;0.80;;;;;;;22.45;60.10;101510.59;5026669;28;20090;-66
2022/08/12 01:14:17;;;;;;;0.75;0.73;;;;;;;22.47;60.69;101516.44;5025039;28;20033;-66
2022/08/12 01:16:46;;;;;;;1.00;0.85;;;;;;;22.47;60.38;101508.22;5023216;28;20497;-66
2022/08/12 01:19:12;;;;;;;3.67;0.90;;;;;;;22.46;59.84;101506.63;5022514;28;20060;-66
2022/08/12 01:21:56;;;;;;;0.88;0.80;;;;;;;22.40;60.16;101503.59;5027958;28;20626;-66
2022/08/12 01:24:52;;;;;;;0.98;0.70;;;;;;;22.50;60.07;101507.38;5022297;28;20026;-66
2022/08/12 01:27:22;;;;;;;1.63;0.73;;;;;;;22.48;59.63;101506.22;5029007;28;20061;-66
2022/08/12 01:29:50;;;;;;;2.20;0.80;;;;;;;22.41;58.88;101499.63;5028340;28;20567;-66
2022/08/12 01:32:19;;;;;;;1.25;0.80;;;;;;;22.35;59.92;101508.78;5029710;28;20060;-65
2022/08/12 01:34:53;;;;;;;1.73;0.98;;;;;;;22.36;59.81;101502.06;5027882;28;20560;-66
2022/08/12 01:37:23;;;;;;;1.80;1.23;;;;;;;22.26;60.06;101506.53;5025792;28;20449;-66
2022/08/12 01:39:51;;;;;;;1.80;0.90;;;;;;;22.31;60.48;101502.56;5031944;28;20449;-66
2022/08/12 01:42:39;;;;;;;1.25;0.65;;;;;;;22.26;60.46;101505.78;5031878;28;20960;-66
2022/08/12 01:45:06;;;;;;;2.45;0.80;;;;;;;22.26;60.62;101503.78;4966842;28;20047;-66
2022/08/12 01:47:45;;;;;;;3.97;1.00;;;;;;;22.23;60.30;101490.91;4954240;28;20508;-66
2022/08/12 01:50:30;;;;;;;1.70;0.88;;;;;;;22.21;60.52;101492.50;4970650;28;20051;-66
2022/08/12 01:53:04;;;;;;;1.95;0.85;;;;;;;22.21;60.58;101490.53;4969172;28;20073;-66
2022/08/12 01:55:33;;;;;;;1.52;0.90;;;;;;;22.18;60.87;101485.09;4959422;28;20070;-67
2022/08/12 01:58:17;;;;;;;2.08;0.85;;;;;;;22.19;60.30;101489.38;4954531;28;20841;-66
2022/08/12 02:00:51;;;;;;;1.17;0.88;;;;;;;22.12;60.84;101495.75;4955501;28;20138;-67
2022/08/12 02:03:25;;;;;;;1.23;0.90;;;;;;;22.13;61.04;101486.31;4971870;28;20242;-67
2022/08/12 02:11:55;;;;;;;1.45;0.77;;;;;;;22.05;61.48;101486.81;4972217;28;19928;-67
2022/08/12 02:14:35;;;;;;;0.80;0.80;;;;;;;21.97;61.24;101477.91;4941588;28;20045;-67
2022/08/12 02:17:13;;;;;;;2.35;0.98;;;;;;;22.01;61.22;101475.16;4967460;28;20079;-67
2022/08/12 02:19:46;;;;;;;1.25;0.90;;;;;;;21.95;60.66;101496.00;4967798;28;20030;-67
2022/08/12 02:22:28;;;;;;;0.75;0.70;;;;;;;21.98;61.05;101478.69;5003281;28;20052;-67
2022/08/12 02:25:12;;;;;;;1.92;0.88;;;;;;;21.86;61.42;101474.53;5028579;28;20037;-67
2022/08/12 02:27:46;;;;;;;1.05;0.95;;;;;;;21.77;61.98;101487.94;5023818;28;20520;-67
2022/08/12 02:30:14;;;;;;;1.27;0.75;;;;;;;21.68;62.40;101484.91;5030018;28;20096;-66
2022/08/12 02:32:42;;;;;;;1.70;0.80;;;;;;;21.62;63.31;101483.81;5030592;28;20041;-66
2022/08/12 02:35:13;;;;;;;0.80;0.75;;;;;;;21.55;63.84;101487.41;5032251;28;20095;-67
2022/08/12 02:37:40;;;;;;;1.75;1.00;;;;;;;21.46;64.48;101484.41;5027882;28;20048;-67
2022/08/12 02:40:08;;;;;;;1.13;0.70;;;;;;;21.43;65.04;101474.22;5031378;28;20025;-67
2022/08/12 02:42:34;;;;;;;4.18;1.08;;;;;;;21.43;64.83;101479.72;5026593;28;20104;-67
2022/08/12 02:45:08;;;;;;;1.10;0.80;;;;;;;21.40;64.76;101469.56;5029517;28;20072;-66
2022/08/12 02:47:39;;;;;;;1.63;1.08;;;;;;;21.33;64.93;101477.09;5015383;28;20029;-67
2022/08/12 02:50:04;;;;;;;;;;;;;;;21.38;64.87;101480.16;5031960;28;20041;-67
2022/08/12 02:52:32;;;;;;;1.73;1.05;;;;;;;21.34;64.79;101470.41;5022419;28;19912;-67
2022/08/12 02:55:07;;;;;;;1.20;0.90;;;;;;;21.36;64.41;101474.31;5023426;28;20647;-67
2022/08/12 02:57:33;;;;;;;2.13;1.13;;;;;;;21.25;65.17;101472.88;5021559;28;20061;-67
2022/08/12 03:00:04;;;;;;;1.75;0.73;;;;;;;21.17;65.55;101471.38;5030129;28;20160;-67
2022/08/12 03:02:32;;;;;;;1.55;1.00;;;;;;;21.22;65.48;101468.19;5032071;28;20103;-67
2022/08/12 03:05:00;;;;;;;2.08;1.00;;;;;;;21.12;66.47;101461.63;5030730;28;20044;-66
2022/08/12 03:07:25;;;;;;;1.27;0.80;;;;;;;20.94;66.89;101471.97;5028448;28;20053;-67
2022/08/12 03:10:18;;;;;;;1.27;0.80;;;;;;;20.75;68.10;101467.03;5030349;28;20465;-66
2022/08/12 03:12:45;;;;;;;1.75;1.08;;;;;;;20.80;68.41;101469.34;5026697;28;20059;-67
2022/08/12 03:15:14;;;;;;;1.27;0.75;;;;;;;20.88;67.45;101467.31;5030593;28;20033;-67
2022/08/12 03:17:42;;;;;;;3.15;1.10;;;;;;;20.78;68.08;101466.22;5028253;28;20052;-66
2022/08/12 03:20:10;;;;;;;1.50;0.90;;;;;;;20.59;68.67;101464.03;5029099;28;20034;-67
2022/08/12 03:22:41;;;;;;;1.00;0.90;;;;;;;20.67;69.12;101457.34;5030912;28;20037;-67
2022/08/12 03:25:13;;;;;;;2.13;0.98;;;;;;;20.64;69.15;101449.91;5031670;28;20545;-67
2022/08/12 03:27:48;;;;;;;1.02;0.73;;;;;;;20.50;69.58;101452.75;5032040;28;20034;-67
2022/08/12 03:30:16;;;;;;;2.35;0.90;;;;;;;20.61;68.78;101456.19;5033448;28;20037;-67
2022/08/12 03:32:46;;;;;;;1.17;0.85;;;;;;;20.65;69.10;101459.69;5030967;28;20029;-67
2022/08/12 03:35:17;;;;;;;1.63;1.15;;;;;;;20.62;68.38;101446.78;5031523;28;20037;-67
2022/08/12 03:37:44;;;;;;;1.42;1.08;;;;;;;20.68;68.89;101451.44;5009738;28;20041;-66
2022/08/12 03:41:33;;;;;;;1.42;0.93;;;;;;;20.63;68.88;101451.84;5013307;28;20045;-66
2022/08/12 04:02:14;;;;;;;1.55;1.17;;;;;;;19.98;72.17;101456.56;5023393;28;20515;-67
2022/08/12 04:04:43;;;;;;;1.15;0.95;;;;;;;20.03;72.04;101459.69;5027920;28;20025;-66
2022/08/12 04:07:10;;;;;;;1.50;1.02;;;;;;;20.08;72.08;101458.47;5027754;28;20061;-66
2022/08/12 04:09:42;;;;;;;2.78;1.13;;;;;;;20.18;71.49;101460.38;5026936;28;20052;-67
2022/08/12 04:14:57;;;;;;;1.50;1.00;;;;;;;20.11;71.63;101455.72;5028722;28;20493;-66
2022/08/12 04:17:26;;;;;;;1.92;1.13;;;;;;;20.08;71.89;101453.78;5012425;28;20033;-66
2022/08/12 04:19:57;;;;;;;1.60;1.02;;;;;;;19.98;72.68;101459.31;5012387;28;20094;-67
2022/08/12 04:22:28;;;;;;;1.23;0.80;;;;;;;19.98;72.95;101457.34;5022666;28;20048;-66
2022/08/12 04:24:54;;;;;;;1.58;1.20;;;;;;;19.96;73.43;101464.38;5030591;28;20033;-66
2022/08/12 04:27:20;;;;;;;1.65;1.00;;;;;;;19.98;73.37;101454.63;5027391;28;20032;-66
2022/08/12 04:29:45;;;;;;;1.83;1.10;;;;;;;20.05;72.88;101462.81;5024968;28;20401;-67
2022/08/12 04:32:11;;;;;;;1.33;1.17;;;;;;;20.15;72.34;101461.19;5011434;28;20034;-66
2022/08/12 04:34:37;;;;;;;1.40;1.13;;;;;;;20.23;72.29;101455.28;5036166;28;20052;-66
2022/08/12 04:37:23;;;;;;;1.88;1.00;;;;;;;20.22;72.65;101455.69;5027490;28;20122;-66
2022/08/12 04:39:50;;;;;;;1.50;1.02;;;;;;;20.30;72.64;101457.22;4968521;28;20411;-66
2022/08/12 04:42:15;;;;;;;2.67;1.17;;;;;;;20.40;72.02;101461.84;4952792;28;20054;-66
2022/08/12 04:44:41;;;;;;;3.28;1.20;;;;;;;20.24;71.80;101456.06;4968837;28;20054;-66
2022/08/12 04:47:11;;;;;;;2.53;1.55;;;;;;;20.18;73.24;101472.13;4969371;28;20122;-66
2022/08/12 04:49:38;;;;;;;1.58;0.98;;;;;;;20.26;73.00;101467.38;4969248;28;20082;-66
2022/08/12 04:52:04;;;;;;;3.05;1.10;;;;;;;20.20;74.04;101464.31;4950801;28;20066;-66
2022/08/12 04:54:32;;;;;;;2.42;1.25;;;;;;;20.28;73.87;101470.50;4951499;28;20122;-67
2022/08/12 04:56:58;;;;;;;1.63;1.00;;;;;;;20.35;73.56;101468.50;4952259;28;20487;-66
2022/08/12 04:59:24;;;;;;;2.58;1.17;;;;;;;20.32;73.76;101468.53;4960036;28;20039;-66
2022/08/12 05:01:52;;;;;;;4.07;1.20;;;;;;;20.34;73.57;101471.66;4963991;28;20101;-67
2022/08/12 05:04:20;;;;;;;1.70;1.17;;;;;;;20.26;74.24;101464.66;4966366;28;20419;-66
2022/08/12 05:06:47;;;;;;;1.60;1.35;;;;;;;20.41;74.09;101466.13;4967459;28;20043;-66
2022/08/12 05:09:14;;;;;;;1.35;1.10;;;;;;;20.38;74.63;101464.19;4966022;28;20141;-67
2022/08/12 05:11:40;;;;;;;2.17;1.27;;;;;;;20.43;74.70;101471.97;4943971;28;20031;-66
2022/08/12 05:14:05;;;;;;;2.03;1.40;;;;;;;20.42;73.47;101478.63;4971010;28;20113;-67
2022/08/12 05:16:31;;;;;;;1.35;1.00;;;;;;;20.47;73.43;101470.00;4983038;28;20528;-66
2022/08/12 05:18:57;;;;;;;3.00;1.15;;;;;;;20.52;73.60;101464.84;5023942;28;20038;-66
2022/08/12 05:21:23;;;;;;;1.88;1.15;;;;;;;20.65;73.43;101468.66;5033515;28;20501;-66
2022/08/12 05:23:48;;;;;;;2.05;1.25;;;;;;;20.71;71.73;101471.00;5031936;28;20033;-66
2022/08/12 05:26:14;;;;;;;1.58;1.13;;;;;;;20.71;72.03;101466.31;5032661;28;20420;-66
2022/08/12 05:28:40;;;;;;;1.92;1.00;;;;;;;20.81;73.72;101459.19;5028959;28;20029;-66
2022/08/12 05:31:05;;;;;;;1.70;1.23;;;;;;;20.96;73.25;101461.38;5014185;28;20129;-66
2022/08/12 05:33:39;;;;;;;3.20;1.27;;;;;;;21.22;72.38;101462.72;5033705;28;20433;-66
2022/08/12 05:36:13;;;;;;;1.60;1.20;;;;;;;21.41;71.99;101471.13;5031107;28;20038;-66
2022/08/12 05:38:55;;;;;;;1.83;1.13;;;;;;;21.58;70.41;101465.84;5031415;28;20037;-66
2022/08/12 05:41:20;;;;;;;;;;;;;;;21.96;68.60;101478.31;5030307;28;20390;-66
2022/08/12 05:44:00;;;;;;;1.88;1.08;;;;;;;22.40;67.07;101475.34;5033974;28;19966;-66
2022/08/12 05:46:27;;;;;;;1.77;1.15;;;;;;;22.62;67.53;101476.63;5023171;28;20036;-66
2022/08/12 05:48:54;;;;;;;1.92;1.23;;;;;;;22.84;66.55;101477.81;5032503;28;20017;-66
2022/08/12 05:51:23;;;;;;;1.88;1.10;;;;;;;23.10;66.02;101487.97;5024500;28;20033;-66
2022/08/12 05:53:53;;;;;;;1.63;1.00;;;;;;;23.28;65.79;101488.44;5023926;28;20418;-66
2022/08/12 05:56:20;;;;;;;2.30;1.00;;;;;;;23.46;65.21;101492.84;5028593;28;20044;-66
2022/08/12 05:58:46;;;;;;;2.22;1.35;;;;;;;23.29;64.15;101491.94;5032565;28;20441;-66
2022/08/12 06:01:13;;;;;;;3.25;1.20;;;;;;;23.32;64.49;101491.16;5029165;28;20030;-66
2022/08/12 06:03:38;;;;;;;1.70;1.10;;;;;;;23.54;65.52;101489.53;5026910;28;20568;-66
2022/08/12 06:06:05;;;;;;;1.98;1.10;;;;;;;23.83;64.03;101496.00;5029384;28;20124;-67
2022/08/12 06:08:34;;;;;;;2.95;1.45;;;;;;;24.11;63.36;101505.69;5028615;28;20048;-67
2022/08/12 06:11:03;;;;;;;1.35;1.00;;;;;;;24.35;62.84;101500.84;5034947;28;20083;-66
2022/08/12 06:13:29;;;;;;;2.38;1.50;;;;;;;24.60;60.57;101503.78;5048278;28;20094;-67
2022/08/12 06:15:55;;;;;;;2.28;1.25;;;;;;;24.79;59.35;101509.25;5026982;28;20041;-67
2022/08/12 06:18:20;;;;;;;1.42;0.68;;;;;;;24.87;58.99;101507.84;5031115;28;20489;-67
2022/08/12 06:20:48;;;;;;;1.17;0.80;;;;;;;24.81;60.28;101506.06;5032182;28;20033;-67
2022/08/12 06:23:14;;;;;;;1.33;1.00;;;;;;;24.84;59.13;101508.72;5032788;28;20060;-67
2022/08/12 06:25:42;;;;;;;2.15;1.10;;;;;;;24.95;58.38;101509.22;5018188;28;20049;-67
2022/08/12 06:28:18;;;;;;;1.83;1.02;;;;;;;25.13;58.77;101513.50;5020149;28;20498;-67
2022/08/12 06:30:45;;;;;;;1.92;1.10;;;;;;;25.15;58.70;101516.63;5032266;28;20044;-67
2022/08/12 06:33:12;;;;;;;1.23;0.88;;;;;;;24.86;57.59;101513.81;5032109;28;20036;-67
2022/08/12 06:35:41;;;;;;;2.28;1.33;;;;;;;24.79;59.57;101505.72;5029075;28;20099;-67
2022/08/12 06:38:17;;;;;;;1.92;1.15;;;;;;;25.19;59.34;101504.28;5011920;28;20038;-67
2022/08/12 06:43:30;;;;;;;2.15;0.98;;;;;;;25.31;57.68;101505.56;5032758;28;20033;-67
2022/08/12 06:45:58;;;;;;;5.32;1.30;;;;;;;25.55;56.67;101506.91;5026668;28;20033;-68
2022/08/12 06:48:26;;;;;;;2.95;1.05;;;;;;;25.74;56.50;101504.00;5010918;28;20509;-67
2022/08/12 06:50:53;;;;;;;1.27;1.00;;;;;;;25.83;58.18;101511.63;5018478;28;20034;-67
2022/08/12 06:53:19;;;;;;;2.15;1.13;;;;;;;25.78;58.12;101506.66;5031125;28;20041;-68
2022/08/12 06:55:44;;;;;;;1.52;1.10;;;;;;;25.73;55.64;101504.41;5031511;28;20041;-68
2022/08/12 06:58:10;;;;;;;1.98;1.27;;;;;;;25.78;55.63;101506.66;5031441;28;20116;-68
2022/08/12 07:00:36;;;;;;;1.00;0.85;;;;;;;25.97;55.06;101508.47;5014724;28;20387;-67
2022/08/12 07:03:04;;;;;;;2.70;1.42;;;;;;;26.02;54.78;101513.44;5016345;28;20041;-68
2022/08/12 07:05:30;;;;;;;2.88;1.20;;;;;;;26.23;55.50;101512.81;5024449;28;20043;-67
2022/08/12 07:08:01;;;;;;;2.45;1.00;;;;;;;26.40;54.76;101505.22;5030582;28;20047;-67
2022/08/12 07:10:31;;;;;;;1.63;1.25;;;;;;;26.36;55.08;101508.09;5029411;28;20770;-67
2022/08/12 07:12:59;;;;;;;1.45;1.17;;;;;;;26.57;54.23;101506.63;5026337;28;20037;-67
2022/08/12 07:15:25;;;;;;;2.75;0.95;;;;;;;26.49;53.71;101508.84;5010592;28;20520;-67
2022/08/12 07:17:59;;;;;;;1.23;1.05;;;;;;;26.75;53.84;101507.63;5021350;28;20125;-67
2022/08/12 07:20:29;;;;;;;3.13;0.90;;;;;;;27.12;54.51;101510.78;5026687;28;20457;-67
2022/08/12 07:22:55;;;;;;;2.10;0.93;;;;;;;27.35;54.02;101507.63;5028839;28;20106;-67
2022/08/12 07:25:30;;;;;;;2.35;0.80;;;;;;;27.53;54.03;101508.53;5025459;28;20393;-67
2022/08/12 07:27:57;;;;;;;2.47;1.10;;;;;;;27.75;52.37;101505.75;5028857;28;20402;-67
2022/08/12 07:30:23;;;;;;;1.30;0.95;;;;;;;27.93;52.04;101511.41;5027999;28;20077;-67
2022/08/12 07:32:50;;;;;;;2.47;0.93;;;;;;;27.98;51.29;101512.84;5026648;28;20026;-67
2022/08/12 07:35:19;;;;;;;2.20;1.10;;;;;;;28.05;50.27;101512.59;5023735;28;20048;-68
2022/08/12 07:37:46;;;;;;;1.05;0.90;;;;;;;27.73;50.83;101513.75;5029829;28;20047;-67
2022/08/12 07:40:13;;;;;;;1.80;1.27;;;;;;;27.99;50.94;101515.16;5031443;28;20045;-68
2022/08/12 07:42:40;;;;;;;1.10;1.00;;;;;;;28.24;49.65;101514.97;5020029;28;20400;-68
2022/08/12 07:45:08;;;;;;;1.42;1.10;;;;;;;28.04;50.59;101516.56;5028507;28;20612;-68
2022/08/12 07:47:33;;;;;;;1.23;0.80;;;;;;;28.34;50.98;101516.56;5029367;28;20048;-68
2022/08/12 07:50:00;;;;;;;2.65;1.00;;;;;;;28.23;49.75;101507.91;5032454;28;20061;-68
2022/08/12 07:52:27;;;;;;;1.38;1.05;;;;;;;28.46;51.72;101514.91;5023764;28;20131;-67
2022/08/12 07:54:53;;;;;;;1.50;1.00;;;;;;;28.24;49.82;101514.97;5029124;28;20461;-67
2022/08/12 07:57:19;;;;;;;1.70;1.00;;;;;;;28.42;49.58;101508.72;5019932;28;20037;-68
2022/08/12 07:59:45;;;;;;;3.45;1.25;;;;;;;28.82;50.28;101522.59;5019806;28;20419;-67
2022/08/12 08:02:11;;;;;;;1.20;0.95;;;;;;;28.92;48.77;101521.41;5018979;28;20081;-67
2022/08/12 08:04:54;;;;;;;1.20;0.98;;;;;;;28.87;48.24;101516.44;5029130;28;20041;-67
2022/08/12 08:07:22;;;;;;;2.83;1.02;;;;;;;29.01;49.41;101519.41;5022548;28;20478;-67
2022/08/12 08:09:48;;;;;;;2.17;1.00;;;;;;;29.29;50.37;101522.97;5027359;28;20025;-67
2022/08/12 08:14:57;;;;;;;0.77;0.73;;;;;;;29.31;47.92;101537.97;5017486;28;20033;-67
2022/08/12 08:17:26;;;;;;;1.95;0.88;;;;;;;29.69;47.30;101531.16;5029255;28;20107;-67
2022/08/12 08:19:52;;;;;;;1.67;1.30;;;;;;;30.08;46.65;101527.41;5023593;28;20048;-67
2022/08/12 08:22:18;;;;;;;1.25;1.00;;;;;;;30.10;46.67;101530.50;5026597;28;20041;-67
2022/08/12 08:24:44;;;;;;;5.40;0.93;;;;;;;30.22;44.55;101535.84;5025563;28;20053;-67
2022/08/12 08:27:11;;;;;;;3.95;1.30;;;;;;;30.45;45.97;101531.59;5027766;28;20383;-67
2022/08/12 08:29:36;;;;;;;1.90;0.80;;;;;;;30.63;42.98;101525.19;5026164;28;20029;-68
2022/08/12 08:32:06;;;;;;;1.00;0.80;;;;;;;30.47;43.91;101528.38;5029706;28;20509;-68
2022/08/12 08:34:32;;;;;;;1.73;0.90;;;;;;;30.77;45.02;101521.69;5032816;28;20064;-68
2022/08/12 08:36:57;;;;;;;1.10;1.00;;;;;;;30.75;44.29;101524.97;5024874;28;20064;-68
2022/08/12 08:39:26;;;;;;;1.33;0.95;;;;;;;30.56;44.70;101537.44;5025967;28;20087;-68
2022/08/12 08:44:36;;;;;;;1.13;0.80;;;;;;;31.10;44.74;101526.00;5027190;28;20026;-68
2022/08/12 08:47:04;;;;;;;1.33;0.95;;;;;;;31.35;44.76;101530.28;5024621;28;20025;-67
2022/08/12 08:49:29;;;;;;;1.23;0.82;;;;;;;31.42;42.96;101535.50;5023707;28;20128;-67
2022/08/12 08:51:55;;;;;;;1.65;1.00;;;;;;;31.32;44.21;101531.22;5033160;28;20100;-68
2022/08/12 08:54:23;;;;;;;1.63;0.95;;;;;;;31.40;43.95;101531.69;5028327;28;20120;-68
2022/08/12 08:56:49;;;;;;;1.50;0.82;;;;;;;31.73;44.41;101533.06;5029718;28;20120;-68
2022/08/12 08:59:18;;;;;;;2.08;0.85;;;;;;;31.87;43.58;101532.28;5022397;28;20052;-68
2022/08/12 09:01:44;;;;;;;1.42;1.02;;;;;;;31.85;43.07;101528.44;5033253;28;20033;-68
2022/08/12 09:04:10;;;;;;;1.45;0.90;;;;;;;31.85;42.63;101537.59;5034777;28;20506;-68
2022/08/12 09:06:38;;;;;;;1.08;0.98;;;;;;;32.03;42.69;101533.09;5028778;28;20518;-68
2022/08/12 09:09:13;;;;;;;1.45;1.20;;;;;;;32.28;41.88;101535.25;5030773;28;20041;-68
2022/08/12 09:14:23;;;;;;;1.27;1.17;;;;;;;32.74;41.31;101528.63;5033656;28;20030;-67
2022/08/12 09:16:52;;;;;;;3.35;0.73;;;;;;;32.66;40.62;101529.50;5031778;28;20041;-67
2022/08/12 09:19:17;;;;;;;1.15;0.85;;;;;;;32.80;40.90;101523.13;5026651;28;20025;-68
2022/08/12 09:21:47;;;;;;;3.28;0.75;;;;;;;32.88;41.04;101529.84;5033011;28;20433;-68
2022/08/12 09:24:18;;;;;;;1.52;1.00;;;;;;;33.14;40.78;101535.53;5026564;28;20049;-68
2022/08/12 09:26:47;;;;;;;1.25;0.80;;;;;;;33.33;40.07;101533.97;5030665;28;20041;-68
2022/08/12 09:29:14;;;;;;;2.85;1.20;;;;;;;33.54;39.80;101541.09;5025734;28;20109;-68
2022/08/12 09:31:42;;;;;;;1.70;0.70;;;;;;;33.60;39.41;101523.09;5026870;28;20030;-66
2022/08/12 09:34:11;;;;;;;1.38;0.80;;;;;;;33.81;39.64;101525.84;5033775;28;20522;-68
2022/08/12 09:36:38;;;;;;;1.55;0.85;;;;;;;33.94;39.03;101529.75;5028001;28;20038;-68
2022/08/12 09:39:06;;;;;;;1.67;0.73;;;;;;;34.17;39.09;101516.75;5027356;28;20100;-68
2022/08/12 09:41:42;;;;;;;1.50;0.90;;;;;;;34.27;37.79;101526.50;5027346;28;20041;-68
2022/08/12 09:46:53;;;;;;;0.95;0.80;;;;;;;34.34;37.44;101515.59;5028534;28;20054;-68
2022/08/12 09:49:20;;;;;;;2.95;0.85;;;;;;;34.49;37.32;101518.28;5027784;28;20084;-68
2022/08/12 09:51:46;;;;;;;1.85;0.82;;;;;;;34.59;36.39;101521.66;5028468;28;20040;-68
2022/08/12 09:54:13;;;;;;;1.08;0.90;;;;;;;34.65;36.59;101514.78;5045705;22;20069;-69
2022/08/12 09:56:39;;;;;;;1.70;0.80;;;;;;;34.85;36.47;101513.88;5031526;28;20450;-68
2022/08/12 09:59:07;;;;;;;2.58;0.82;;;;;;;34.90;35.76;101513.16;5023711;28;20401;-69
2022/08/12 10:01:33;;;;;;;1.25;0.88;;;;;;;34.95;36.23;101510.38;5028919;28;20037;-69
2022/08/12 10:03:59;;;;;;;1.00;0.90;;;;;;;35.07;35.59;101497.19;5026743;28;20518;-69
2022/08/12 10:06:26;;;;;;;0.77;0.60;;;;;;;35.12;34.85;101491.59;5026931;28;20040;-68
2022/08/12 10:08:52;;;;;;;1.00;0.80;;;;;;;35.29;33.96;101497.25;5021540;28;20026;-68
2022/08/12 10:14:02;;;;;;;0.75;0.65;;;;;;;35.49;34.08;101493.47;5021752;28;20029;-69
2022/08/12 10:16:30;;;;;;;0.55;0.52;;;;;;;35.61;34.92;101498.63;5032885;28;20045;-68
2022/08/12 10:18:58;;;;;;;0.70;0.65;;;;;;;35.71;34.04;101482.31;5031824;28;20033;-69
2022/08/12 10:21:35;;;;;;;0.60;0.60;;;;;;;35.82;33.03;101485.09;5026184;28;20374;-69
2022/08/12 10:24:03;;;;;;;0.80;0.80;;;;;;;35.61;32.57;101478.97;5031136;28;20708;-68
2022/08/12 10:31:59;;;;;;;0.70;0.70;;;;;;;35.69;32.52;101470.81;5031518;28;20069;-68
2022/08/12 10:34:25;;;;;;;0.60;0.60;;;;;;;35.03;31.94;101458.22;5038595;28;20067;-68
2022/08/12 10:36:57;;;;;;;1.98;0.70;;;;;;;35.41;31.51;101463.13;5034672;28;20040;-68
2022/08/12 10:39:25;;;;;;;1.17;1.02;;;;;;;35.68;31.29;101458.06;5024265;28;20078;-68
2022/08/12 10:44:35;;;;;;;0.93;0.68;;;;;;;35.84;30.57;101446.06;5030973;28;20025;-68
2022/08/12 10:47:02;;;;;;;0.82;0.70;;;;;;;35.95;31.24;101432.81;5021016;28;20438;-68
2022/08/12 10:49:30;;;;;;;1.75;0.70;;;;;;;36.12;30.26;101444.03;5025085;28;20503;-68
2022/08/12 10:51:56;;;;;;;0.85;0.70;;;;;;;36.27;30.09;101436.09;5027358;28;20057;-69
2022/08/12 10:54:26;;;;;;;1.48;0.70;;;;;;;36.34;29.73;101431.97;5023469;28;20039;-69
2022/08/12 10:56:52;;;;;;;1.17;0.77;;;;;;;36.48;29.47;101431.69;5026536;28;20121;-68
2022/08/12 10:59:20;;;;;;;2.42;0.75;;;;;;;36.26;29.98;101426.88;5023842;28;20025;-68
2022/08/12 11:01:47;;;;;;;0.60;0.60;;;;;;;36.50;29.28;101419.94;5021401;28;20034;-68
2022/08/12 11:04:13;;;;;;;3.67;0.70;;;;;;;36.71;29.06;101430.31;5012657;28;20818;-68
2022/08/12 11:06:49;;;;;;;1.08;0.65;;;;;;;36.82;29.86;101421.84;5027663;28;20129;-68
2022/08/12 11:09:18;;;;;;;0.80;0.50;;;;;;;36.85;27.84;101434.13;5025659;28;20048;-69
2022/08/12 11:11:47;;;;;;;0.77;0.60;;;;;;;36.81;28.27;101414.69;5019509;28;20049;-68
2022/08/12 11:14:32;;;;;;;0.60;0.60;;;;;;;36.80;28.32;101418.78;5026053;28;20497;-68
2022/08/12 11:17:06;;;;;;;1.60;0.90;;;;;;;36.71;27.24;101419.09;5029083;28;21672;-68
2022/08/12 11:19:36;;;;;;;1.95;0.60;;;;;;;36.95;27.72;101416.41;5027476;28;20033;-68
2022/08/12 11:22:08;;;;;;;;;;;;;;;37.06;28.24;101415.59;5026128;28;20041;-68
2022/08/12 11:24:34;;;;;;;1.08;0.55;;;;;;;37.07;28.23;101415.06;5027773;28;19995;-69
2022/08/12 11:27:02;;;;;;;0.65;0.60;;;;;;;37.18;28.44;101413.47;5028847;28;20025;-69
2022/08/12 11:29:28;;;;;;;1.02;0.60;;;;;;;37.21;28.19;101412.41;5026841;28;20129;-68
2022/08/12 11:31:54;;;;;;;1.17;0.50;;;;;;;37.10;27.71;101408.41;5031047;28;20104;-69
2022/08/12 11:34:20;;;;;;;0.75;0.70;;;;;;;37.04;26.30;101407.69;5029431;28;20560;-69
2022/08/12 11:36:54;;;;;;;3.63;0.90;;;;;;;36.69;27.18;101407.59;5030790;28;20120;-69
2022/08/12 11:39:20;;;;;;;0.52;0.52;;;;;;;36.93;27.94;101410.56;5027566;28;20029;-69
2022/08/12 11:41:46;;;;;;;1.42;0.77;;;;;;;37.10;27.55;101408.41;5014233;28;20069;-68
2022/08/12 11:44:12;;;;;;;1.15;0.60;;;;;;;37.29;27.74;101414.16;5033860;28;20443;-68
2022/08/12 11:46:39;;;;;;;1.35;0.60;;;;;;;37.42;27.90;101407.97;5021559;28;20104;-68
2022/08/12 11:49:08;;;;;;;0.85;0.60;;;;;;;37.45;27.87;101404.84;5027998;28;20481;-68
2022/08/12 11:51:34;;;;;;;1.45;0.57;;;;;;;37.50;27.40;101403.25;5026396;28;20087;-69
2022/08/12 11:54:00;;;;;;;0.70;0.40;;;;;;;37.47;26.85;101393.84;5024769;28;20109;-69
2022/08/12 11:56:26;;;;;;;3.90;0.75;;;;;;;37.34;27.02;101390.88;5024074;28;20120;-68
2022/08/12 11:58:52;;;;;;;0.70;0.60;;;;;;;37.32;27.74;101396.28;5040865;28;20421;-69
2022/08/12 12:01:19;;;;;;;0.60;0.60;;;;;;;37.21;26.95;101395.53;5029971;28;20052;-69
2022/08/12 12:03:45;;;;;;;0.55;0.50;;;;;;;37.13;27.55;101389.72;5022959;28;20042;-69
2022/08/12 12:06:11;;;;;;;1.65;0.60;;;;;;;37.22;27.52;101394.28;5025939;28;20063;-69
2022/08/12 12:08:36;;;;;;;0.77;0.50;;;;;;;37.19;26.97;101384.09;5028889;28;20059;-68
2022/08/12 12:11:22;;;;;;;0.80;0.65;;;;;;;36.85;27.93;101380.72;5028274;28;20493;-68
2022/08/12 12:13:48;;;;;;;0.80;0.70;;;;;;;37.00;27.70;101383.94;4964723;28;20900;-68
2022/08/12 12:16:14;;;;;;;0.75;0.50;;;;;;;36.92;27.17;101374.53;4966374;28;20069;-68
2022/08/12 12:18:39;;;;;;;0.90;0.55;;;;;;;36.99;28.58;101371.19;4967420;28;20039;-68
2022/08/12 12:21:07;;;;;;;1.13;0.70;;;;;;;36.85;28.10;101378.69;4966604;28;20074;-68
2022/08/12 12:23:36;;;;;;;0.93;0.57;;;;;;;36.68;27.58;101369.56;4944566;28;20085;-68
2022/08/12 12:26:05;;;;;;;0.73;0.60;;;;;;;36.75;27.43;101366.19;4963189;28;20533;-68
2022/08/12 12:28:31;;;;;;;3.50;1.60;;;;;;;36.60;28.87;101362.97;4967450;28;20411;-69
2022/08/12 12:30:56;;;;;;;1.13;0.65;;;;;;;36.78;27.67;101367.94;4966689;28;20080;-68
2022/08/12 12:33:22;;;;;;;1.10;0.60;;;;;;;36.20;27.66;101364.38;4967738;28;20043;-68
2022/08/12 12:35:48;;;;;;;0.93;0.73;;;;;;;36.27;27.76;101368.69;4961345;28;20130;-68
2022/08/12 12:38:15;;;;;;;1.40;0.70;;;;;;;36.45;28.25;101367.38;4964706;28;20038;-69
2022/08/12 12:40:43;;;;;;;1.02;0.55;;;;;;;36.56;27.84;101367.31;4962673;28;20050;-68
2022/08/12 12:43:08;;;;;;;1.25;0.70;;;;;;;36.56;28.12;101361.72;4961687;28;20043;-68
2022/08/12 12:45:36;;;;;;;1.00;0.80;;;;;;;36.65;28.65;101350.16;4965420;28;20030;-68
2022/08/12 12:48:01;;;;;;;0.77;0.73;;;;;;;36.60;28.23;101348.16;4962825;28;20043;-68
2022/08/12 12:50:35;;;;;;;1.00;0.90;;;;;;;36.56;28.21;101337.19;4984253;28;20186;-68
2022/08/12 12:53:00;;;;;;;0.75;0.60;;;;;;;36.15;28.31;101345.53;5026484;28;20123;-68
2022/08/12 12:55:26;;;;;;;0.88;0.70;;;;;;;36.27;28.62;101335.00;5026546;28;20847;-68
2022/08/12 12:57:53;;;;;;;0.70;0.70;;;;;;;36.14;28.47;101338.38;5027731;28;20473;-68
2022/08/12 13:00:20;;;;;;;0.63;0.45;;;;;;;36.26;28.25;101333.47;5028550;28;20029;-68
2022/08/12 13:02:51;;;;;;;0.80;0.75;;;;;;;36.29;28.00;101335.25;5027812;28;20033;-68
2022/08/12 13:05:25;;;;;;;1.85;0.50;;;;;;;36.34;27.73;101336.50;5022841;28;20037;-68
2022/08/12 13:07:53;;;;;;;2.85;0.75;;;;;;;36.35;27.82;101333.19;5027572;28;20079;-69
2022/08/12 13:10:19;;;;;;;1.60;0.82;;;;;;;36.36;28.19;101320.66;5029224;28;20033;-69
2022/08/12 13:12:46;;;;;;;3.88;0.70;;;;;;;36.14;27.38;101329.94;5021085;28;20052;-68
2022/08/12 13:15:15;;;;;;;1.02;0.60;;;;;;;36.09;26.97;101327.94;5028435;28;20036;-68
2022/08/12 13:17:48;;;;;;;0.70;0.60;;;;;;;36.25;27.12;101332.72;5023971;28;20394;-69